Time;durP1;ratioP1;P1;durP2;ratioP2;P2;SDS_P1;SDS_P2;PMS_P1;PMS_P2;Temp;Humidity;BMP_temperature;BMP_pressure;BME280_temperature;BME280_humidity;BME280_pressure;Samples;Min_cycle;Max_cycle;Signal;HPM_P1;HPM_P2
2022/03/29 00:00:29;;;;;;;11.13;5.70;;;9.10;99.90;;;;;;6249465;22;20506;-88
2022/03/29 00:03:00;;;;;;;11.65;6.15;;;9.10;99.90;;;;;;6273226;22;20016;-87
2022/03/29 00:05:27;;;;;;;9.82;4.93;;;9.10;99.90;;;;;;6275514;22;20019;-87
2022/03/29 00:07:55;;;;;;;12.07;5.72;;;9.10;99.90;;;;;;6275501;22;20015;-89
2022/03/29 00:10:29;;;;;;;11.40;6.45;;;9.10;99.90;;;;;;6250239;22;20039;-88
2022/03/29 00:12:57;;;;;;;11.38;6.00;;;8.70;99.90;;;;;;6275055;22;20023;-87
2022/03/29 00:15:24;;;;;;;11.55;6.75;;;8.70;99.90;;;;;;6249942;22;20494;-88
2022/03/29 00:17:56;;;;;;;10.88;5.75;;;8.80;99.90;;;;;;6249633;22;20023;-87
2022/03/29 00:20:23;;;;;;;8.63;5.10;;;8.80;99.90;;;;;;6274748;22;20089;-87
2022/03/29 00:22:53;;;;;;;15.05;8.00;;;8.90;99.90;;;;;;6274745;22;20475;-86
2022/03/29 00:25:23;;;;;;;12.02;6.85;;;8.80;99.90;;;;;;6275262;22;20024;-87
2022/03/29 00:27:50;;;;;;;12.05;6.53;;;8.70;99.90;;;;;;6275258;22;20077;-88
2022/03/29 00:30:17;;;;;;;15.18;8.18;;;8.70;99.90;;;;;;6249713;22;20447;-88
2022/03/29 00:32:45;;;;;;;14.43;7.78;;;8.70;99.90;;;;;;6275285;22;20607;-88
2022/03/29 00:35:12;;;;;;;17.30;9.05;;;8.50;99.90;;;;;;6249938;22;20084;-87
2022/03/29 00:37:41;;;;;;;14.65;8.73;;;8.40;99.90;;;;;;6249228;22;20027;-87
2022/03/29 00:40:11;;;;;;;9.63;5.85;;;8.40;99.90;;;;;;6275159;22;20024;-87
2022/03/29 00:42:40;;;;;;;7.93;5.53;;;8.40;99.90;;;;;;6250341;22;20508;-87
2022/03/29 00:45:08;;;;;;;18.30;8.38;;;8.60;99.90;;;;;;6275421;22;20023;-87
2022/03/29 00:47:39;;;;;;;11.38;5.90;;;8.60;99.90;;;;;;6275301;22;20115;-87
2022/03/29 00:50:10;;;;;;;12.52;7.30;;;8.60;99.90;;;;;;6273723;22;20019;-88
2022/03/29 00:52:38;;;;;;;9.95;6.22;;;8.70;99.90;;;;;;6274470;22;20450;-87
2022/03/29 00:55:12;;;;;;;13.73;8.18;;;8.80;99.90;;;;;;6276985;22;20031;-87
2022/03/29 00:57:46;;;;;;;12.02;6.20;;;8.70;99.90;;;;;;6274740;22;20023;-87
2022/03/29 01:00:16;;;;;;;9.13;6.35;;;8.60;99.90;;;;;;6275090;22;20027;-88
2022/03/29 01:02:46;;;;;;;12.32;5.40;;;8.70;99.90;;;;;;6274879;22;20046;-87
2022/03/29 01:05:14;;;;;;;16.20;8.40;;;8.70;99.90;;;;;;6249627;22;20016;-87
2022/03/29 01:07:44;;;;;;;10.05;6.18;;;8.70;99.90;;;;;;6277828;22;20050;-87
2022/03/29 01:10:12;;;;;;;16.83;7.68;;;8.70;99.90;;;;;;6278072;22;20016;-86
2022/03/29 01:12:42;;;;;;;12.45;6.32;;;8.60;99.90;;;;;;6275554;22;20103;-87
2022/03/29 01:15:13;;;;;;;8.55;5.70;;;8.60;99.90;;;;;;6274747;22;20073;-87
2022/03/29 01:17:43;;;;;;;10.63;6.03;;;8.70;99.90;;;;;;6275141;22;20069;-87
2022/03/29 01:20:30;;;;;;;11.32;5.63;;;8.70;99.90;;;;;;6274589;22;20099;-86
2022/03/29 01:22:59;;;;;;;11.77;6.90;;;8.80;99.90;;;;;;6275336;22;20020;-88
2022/03/29 01:25:40;;;;;;;14.48;6.72;;;8.80;99.90;;;;;;6274546;22;20378;-87
2022/03/29 01:28:11;;;;;;;13.93;6.00;;;8.70;99.90;;;;;;6274225;22;20518;-87
2022/03/29 01:30:44;;;;;;;11.50;6.50;;;8.70;99.90;;;;;;6274101;22;20015;-87
2022/03/29 01:33:17;;;;;;;9.48;5.78;;;8.70;99.90;;;;;;6274449;22;20022;-87
2022/03/29 01:35:47;;;;;;;15.63;8.02;;;8.60;99.90;;;;;;6274818;22;20662;-86
2022/03/29 01:38:15;;;;;;;17.00;8.55;;;8.40;99.90;;;;;;6274253;22;20462;-88
2022/03/29 01:40:42;;;;;;;10.82;6.43;;;8.40;99.90;;;;;;6273939;22;20016;-87
2022/03/29 01:43:15;;;;;;;10.32;6.43;;;8.40;99.90;;;;;;6276040;22;20021;-88
2022/03/29 01:45:42;;;;;;;14.98;7.22;;;8.50;99.90;;;;;;6248658;22;20102;-85
2022/03/29 01:48:12;;;;;;;11.48;5.82;;;8.50;99.90;;;;;;6248695;22;20355;-88
2022/03/29 01:50:48;;;;;;;15.70;8.35;;;8.40;99.90;;;;;;6275460;22;20030;-87
2022/03/29 01:53:26;;;;;;;11.77;6.07;;;8.50;99.90;;;;;;6275784;22;20015;-88
2022/03/29 01:55:58;;;;;;;16.77;8.05;;;8.40;99.90;;;;;;6275707;22;20016;-87
2022/03/29 01:58:27;;;;;;;14.90;6.10;;;8.60;99.90;;;;;;6274723;22;20012;-87
2022/03/29 02:00:58;;;;;;;11.93;6.55;;;8.60;99.90;;;;;;6273566;22;20015;-87
2022/03/29 02:03:30;;;;;;;20.10;9.90;;;8.60;99.90;;;;;;6273587;22;20011;-87
2022/03/29 02:05:59;;;;;;;16.42;7.45;;;8.50;99.90;;;;;;6275624;22;20016;-87
2022/03/29 02:08:29;;;;;;;13.23;8.13;;;8.40;99.90;;;;;;6273730;22;20020;-88
2022/03/29 02:10:56;;;;;;;11.23;7.28;;;8.50;99.90;;;;;;6274049;22;20035;-87
2022/03/29 02:13:23;;;;;;;15.07;7.25;;;8.50;99.90;;;;;;6275541;22;20020;-86
2022/03/29 02:15:53;;;;;;;22.73;12.10;;;8.50;99.90;;;;;;6275420;22;20020;-89
2022/03/29 02:18:20;;;;;;;20.10;12.00;;;8.50;99.90;;;;;;6273708;22;20065;-86
2022/03/29 02:20:51;;;;;;;20.55;11.13;;;8.10;99.90;;;;;;6273150;22;20012;-87
2022/03/29 02:23:21;;;;;;;16.38;9.13;;;8.00;99.90;;;;;;6273737;22;20453;-88
2022/03/29 02:25:48;;;;;;;15.40;8.20;;;8.10;99.90;;;;;;6247734;22;20024;-87
2022/03/29 02:28:18;;;;;;;14.57;8.20;;;8.20;99.90;;;;;;6275305;22;20050;-87
2022/03/29 02:30:47;;;;;;;21.60;10.82;;;8.30;99.90;;;;;;6273008;22;20012;-86
2022/03/29 02:33:16;;;;;;;17.50;9.55;;;8.40;99.90;;;;;;6273872;22;20012;-86
2022/03/29 02:35:44;;;;;;;17.50;10.00;;;8.30;99.90;;;;;;6275371;22;20098;-88
2022/03/29 02:38:13;;;;;;;17.48;10.52;;;8.20;99.90;;;;;;6274587;22;20011;-87
2022/03/29 02:40:41;;;;;;;12.35;7.07;;;8.10;99.90;;;;;;6275142;22;20039;-86
2022/03/29 02:43:10;;;;;;;13.40;7.32;;;8.20;99.90;;;;;;6273735;22;20039;-88
2022/03/29 02:45:40;;;;;;;17.52;7.55;;;8.30;99.90;;;;;;6274045;22;20020;-86
2022/03/29 02:48:07;;;;;;;14.63;8.27;;;8.40;99.90;;;;;;6273760;22;20016;-89
2022/03/29 02:50:36;;;;;;;15.02;8.70;;;8.50;99.90;;;;;;6273303;22;20031;-88
2022/03/29 02:53:04;;;;;;;14.70;9.32;;;8.30;99.90;;;;;;6274258;22;20020;-88
2022/03/29 02:55:35;;;;;;;21.13;10.90;;;8.30;99.90;;;;;;6272943;22;20024;-87
2022/03/29 02:58:02;;;;;;;14.10;7.50;;;8.10;99.90;;;;;;6273879;22;20039;-86
2022/03/29 03:00:29;;;;;;;17.63;10.27;;;8.10;99.90;;;;;;6275527;22;20082;-88
2022/03/29 03:02:59;;;;;;;22.17;9.45;;;8.30;99.90;;;;;;6275387;22;20047;-89
2022/03/29 03:05:30;;;;;;;19.00;10.10;;;8.40;99.90;;;;;;6273832;22;20019;-88
2022/03/29 03:08:00;;;;;;;13.75;8.13;;;8.30;99.90;;;;;;6274522;22;20020;-88
2022/03/29 03:10:28;;;;;;;15.98;9.82;;;8.30;99.90;;;;;;6248295;22;20401;-86
2022/03/29 03:12:55;;;;;;;16.20;8.32;;;8.20;99.90;;;;;;6274954;22;20019;-87
2022/03/29 03:15:24;;;;;;;19.98;10.07;;;8.20;99.90;;;;;;6274110;22;20586;-88
2022/03/29 03:17:52;;;;;;;13.18;7.18;;;8.30;99.90;;;;;;6273535;22;20038;-87
2022/03/29 03:20:20;;;;;;;16.58;8.63;;;8.20;99.90;;;;;;6273191;22;20066;-87
2022/03/29 03:22:48;;;;;;;21.75;10.35;;;8.20;99.90;;;;;;6274315;22;20065;-87
2022/03/29 03:25:15;;;;;;;20.75;10.45;;;8.20;99.90;;;;;;6222927;22;20027;-87
2022/03/29 03:27:42;;;;;;;20.55;10.38;;;8.10;99.90;;;;;;6273469;22;20443;-88
2022/03/29 03:30:12;;;;;;;15.88;8.18;;;8.00;99.90;;;;;;6273871;22;20020;-87
2022/03/29 03:32:41;;;;;;;19.45;9.43;;;8.00;99.90;;;;;;6274325;22;20024;-88
2022/03/29 03:35:12;;;;;;;17.77;9.55;;;8.10;99.90;;;;;;6273319;22;20094;-88
2022/03/29 03:37:39;;;;;;;16.35;8.90;;;8.10;99.90;;;;;;6273320;22;20019;-87
2022/03/29 03:40:09;;;;;;;19.98;9.93;;;8.20;99.90;;;;;;6247434;22;20012;-87
2022/03/29 03:42:37;;;;;;;25.63;10.73;;;8.20;99.90;;;;;;6273721;22;20020;-87
2022/03/29 03:45:07;;;;;;;17.85;8.98;;;8.10;99.90;;;;;;6273701;22;20342;-87
2022/03/29 03:47:37;;;;;;;16.35;8.73;;;8.00;99.90;;;;;;6273665;22;20034;-87
2022/03/29 03:50:08;;;;;;;18.45;9.18;;;8.10;99.90;;;;;;6273133;22;20020;-88
2022/03/29 03:52:38;;;;;;;24.27;10.98;;;8.10;99.90;;;;;;6274524;22;20049;-88
2022/03/29 03:55:07;;;;;;;13.85;7.53;;;8.10;99.90;;;;;;6273270;22;20027;-88
2022/03/29 03:57:37;;;;;;;14.23;7.35;;;8.10;99.90;;;;;;6273435;22;20394;-89
2022/03/29 04:00:06;;;;;;;14.15;7.70;;;8.20;99.90;;;;;;6273086;22;20020;-87
2022/03/29 04:02:41;;;;;;;21.15;10.50;;;8.30;99.90;;;;;;6274861;22;20091;-88
2022/03/29 04:05:13;;;;;;;21.98;10.48;;;8.20;99.90;;;;;;6273509;22;20016;-87
2022/03/29 04:07:41;;;;;;;20.25;10.23;;;8.10;99.90;;;;;;6275285;22;20022;-87
2022/03/29 04:10:10;;;;;;;16.02;7.93;;;8.20;99.90;;;;;;6275182;22;20423;-87
2022/03/29 04:12:37;;;;;;;19.83;9.85;;;8.20;99.90;;;;;;6273291;22;20066;-88
2022/03/29 04:15:08;;;;;;;23.83;10.75;;;8.30;99.90;;;;;;6272353;22;20455;-87
2022/03/29 04:17:35;;;;;;;19.00;9.27;;;8.20;99.90;;;;;;6273460;22;20016;-87
2022/03/29 04:20:03;;;;;;;17.42;8.75;;;8.10;99.90;;;;;;6247084;22;20085;-86
2022/03/29 04:22:35;;;;;;;17.50;7.68;;;8.30;99.90;;;;;;6249077;22;20011;-88
2022/03/29 04:25:06;;;;;;;11.93;6.85;;;8.40;99.90;;;;;;6274374;22;20046;-88
2022/03/29 04:27:35;;;;;;;12.05;7.00;;;8.40;99.90;;;;;;6250266;22;20016;-87
2022/03/29 04:30:06;;;;;;;18.80;7.75;;;8.40;99.90;;;;;;6276750;22;20019;-87
2022/03/29 04:32:37;;;;;;;15.80;9.57;;;8.40;99.90;;;;;;6275416;22;20093;-88
2022/03/29 04:35:05;;;;;;;15.30;8.25;;;8.40;99.90;;;;;;6275367;22;20016;-87
2022/03/29 04:37:32;;;;;;;11.15;6.47;;;8.30;99.90;;;;;;6275152;22;20446;-87
2022/03/29 04:40:01;;;;;;;14.50;7.05;;;8.40;99.90;;;;;;6248813;22;20020;-88
2022/03/29 04:42:28;;;;;;;22.25;11.35;;;8.40;99.90;;;;;;6276243;22;20016;-87
2022/03/29 04:44:57;;;;;;;21.13;11.27;;;8.10;99.90;;;;;;6274742;22;20020;-87
2022/03/29 04:47:24;;;;;;;18.88;9.63;;;8.00;99.90;;;;;;6250029;22;20007;-87
2022/03/29 04:49:53;;;;;;;18.17;10.25;;;7.90;99.90;;;;;;6274743;22;20020;-87
2022/03/29 04:52:20;;;;;;;19.50;7.88;;;8.00;99.90;;;;;;6249615;22;20023;-88
2022/03/29 04:54:48;;;;;;;20.50;10.65;;;8.10;99.90;;;;;;6248123;22;20019;-88
2022/03/29 04:57:18;;;;;;;12.60;7.53;;;8.10;99.90;;;;;;6225717;22;20073;-87
2022/03/29 04:59:50;;;;;;;17.88;9.30;;;8.20;99.90;;;;;;6249336;22;20016;-86
2022/03/29 05:02:18;;;;;;;17.48;9.18;;;8.10;99.90;;;;;;6274652;22;20008;-87
2022/03/29 05:04:47;;;;;;;21.75;12.05;;;8.20;99.90;;;;;;6274758;22;20465;-87
2022/03/29 05:07:18;;;;;;;12.02;6.90;;;8.10;99.90;;;;;;6300574;22;20026;-88
2022/03/29 05:09:48;;;;;;;12.63;7.32;;;8.10;99.90;;;;;;6249953;22;20043;-89
2022/03/29 05:12:19;;;;;;;13.18;7.32;;;8.20;99.90;;;;;;6275058;22;20450;-88
2022/03/29 05:14:51;;;;;;;12.70;7.18;;;8.20;99.90;;;;;;6274657;22;20019;-87
2022/03/29 05:17:20;;;;;;;15.93;8.05;;;8.20;99.90;;;;;;6276372;22;20024;-86
2022/03/29 05:19:49;;;;;;;12.52;6.75;;;8.20;99.90;;;;;;6274614;22;20016;-87
2022/03/29 05:22:16;;;;;;;15.07;7.03;;;8.20;99.90;;;;;;6275082;22;20351;-86
2022/03/29 05:24:47;;;;;;;19.83;9.07;;;8.20;99.90;;;;;;6274777;22;20458;-86
2022/03/29 05:27:15;;;;;;;13.27;7.45;;;8.20;99.90;;;;;;6276280;22;20119;-89
2022/03/29 05:29:47;;;;;;;12.07;6.75;;;8.20;99.90;;;;;;6276157;22;20022;-88
2022/03/29 05:32:32;;;;;;;12.68;7.43;;;8.20;99.90;;;;;;6273396;22;20024;-87
2022/03/29 05:35:03;;;;;;;14.73;8.55;;;8.20;99.90;;;;;;6267279;22;20069;-88
2022/03/29 05:37:31;;;;;;;16.40;8.32;;;8.20;99.90;;;;;;6269415;22;20086;-87
2022/03/29 05:39:57;;;;;;;19.65;9.73;;;8.10;99.90;;;;;;6248547;22;20023;-87
2022/03/29 05:42:25;;;;;;;28.90;11.52;;;8.10;99.90;;;;;;6274347;22;20019;-86
2022/03/29 05:44:52;;;;;;;15.20;8.10;;;8.00;99.90;;;;;;6274674;22;20099;-86
2022/03/29 05:50:05;;;;;;;13.20;7.53;;;8.00;99.90;;;;;;6274451;22;20352;-87
2022/03/29 05:52:32;;;;;;;21.38;10.85;;;8.00;99.90;;;;;;6274199;22;20054;-87
2022/03/29 05:55:00;;;;;;;16.20;8.93;;;7.90;99.90;;;;;;6273458;22;20508;-87
2022/03/29 05:57:29;;;;;;;14.02;8.00;;;7.90;99.90;;;;;;6248049;22;20787;-86
2022/03/29 05:59:56;;;;;;;18.45;9.90;;;8.00;99.90;;;;;;6247850;22;20073;-87
2022/03/29 06:02:24;;;;;;;22.38;10.90;;;8.10;99.90;;;;;;6273086;22;20027;-88
2022/03/29 06:04:51;;;;;;;19.00;8.93;;;7.90;99.90;;;;;;6273561;22;20121;-88
2022/03/29 06:07:22;;;;;;;17.48;8.27;;;7.70;99.90;;;;;;6273276;22;20077;-87
2022/03/29 06:09:50;;;;;;;21.00;9.60;;;7.80;99.90;;;;;;6273037;22;20034;-87
2022/03/29 06:12:21;;;;;;;16.50;7.85;;;7.90;99.90;;;;;;6275607;22;20023;-88
2022/03/29 06:14:51;;;;;;;13.93;7.28;;;8.00;99.90;;;;;;6275365;22;20026;-88
2022/03/29 06:17:21;;;;;;;14.75;8.70;;;8.10;99.90;;;;;;6274691;22;20094;-87
2022/03/29 06:19:49;;;;;;;26.08;11.07;;;8.10;99.90;;;;;;6273433;22;20051;-86
2022/03/29 06:22:16;;;;;;;25.83;11.82;;;8.10;99.90;;;;;;6274766;22;20431;-87
2022/03/29 06:24:47;;;;;;;28.05;14.48;;;7.90;99.90;;;;;;6273842;22;20019;-87
2022/03/29 06:27:17;;;;;;;25.45;12.35;;;7.80;99.90;;;;;;6275448;22;20026;-86
2022/03/29 06:29:44;;;;;;;22.70;12.10;;;7.80;99.90;;;;;;6247144;22;20058;-87
2022/03/29 06:32:18;;;;;;;24.50;13.15;;;7.80;99.90;;;;;;6274566;22;20039;-86
2022/03/29 06:34:45;;;;;;;21.45;11.45;;;7.60;99.90;;;;;;6273701;22;20054;-85
2022/03/29 06:37:15;;;;;;;20.15;9.23;;;7.60;99.90;;;;;;6273704;22;20046;-86
2022/03/29 06:39:41;;;;;;;18.15;9.95;;;7.80;99.90;;;;;;6272605;22;20030;-85
2022/03/29 06:42:09;;;;;;;24.20;11.98;;;7.90;99.90;;;;;;6274280;22;20008;-87
2022/03/29 06:44:39;;;;;;;25.90;11.18;;;7.80;99.90;;;;;;6273503;22;20019;-86
2022/03/29 06:47:10;;;;;;;19.58;9.85;;;7.80;99.90;;;;;;6272822;22;20015;-86
2022/03/29 06:49:44;;;;;;;31.10;11.43;;;7.90;99.90;;;;;;6248333;22;20658;-87
2022/03/29 06:52:15;;;;;;;21.58;10.52;;;7.90;99.90;;;;;;6298246;22;20019;-87
2022/03/29 06:54:46;;;;;;;24.13;11.30;;;7.90;99.90;;;;;;6275066;22;20082;-87
2022/03/29 06:57:16;;;;;;;22.08;10.93;;;8.00;99.90;;;;;;6273582;22;20024;-87
2022/03/29 06:59:44;;;;;;;18.67;9.32;;;8.00;99.90;;;;;;6274169;22;20019;-87
2022/03/29 07:02:13;;;;;;;19.13;10.13;;;8.00;99.90;;;;;;6274514;22;20430;-86
2022/03/29 07:04:45;;;;;;;21.50;11.68;;;8.00;99.90;;;;;;6274206;22;20047;-88
2022/03/29 07:07:19;;;;;;;17.55;9.45;;;8.00;99.90;;;;;;6275553;22;20023;-87
2022/03/29 07:12:34;;;;;;;17.40;10.02;;;8.00;99.90;;;;;;6273657;22;20378;-88
2022/03/29 07:15:04;;;;;;;22.50;10.98;;;8.00;99.90;;;;;;6273909;22;20024;-88
2022/03/29 07:17:39;;;;;;;25.05;11.82;;;8.10;99.90;;;;;;6274845;22;20015;-88
2022/03/29 07:20:07;;;;;;;25.08;10.85;;;8.00;99.90;;;;;;6274709;22;20016;-87
2022/03/29 07:22:38;;;;;;;25.45;11.63;;;7.90;99.90;;;;;;6272855;22;20019;-87
2022/03/29 07:25:09;;;;;;;20.40;10.15;;;7.90;99.90;;;;;;6249271;22;20015;-87
2022/03/29 07:27:40;;;;;;;21.90;10.65;;;8.00;99.90;;;;;;6273539;22;20012;-87
2022/03/29 07:30:14;;;;;;;23.33;12.95;;;8.00;99.90;;;;;;6273729;22;20047;-86
2022/03/29 07:32:46;;;;;;;;;;;8.00;99.90;;;;;;6274437;22;20509;-87
2022/03/29 07:35:20;;;;;;;25.88;12.48;;;8.10;99.90;;;;;;6273255;22;19919;-87
2022/03/29 07:37:50;;;;;;;20.05;10.05;;;8.00;99.90;;;;;;6248177;22;20033;-88
2022/03/29 07:40:21;;;;;;;24.08;12.50;;;8.10;99.90;;;;;;6272455;22;20020;-87
2022/03/29 07:42:52;;;;;;;29.95;13.45;;;8.10;99.90;;;;;;6274584;22;20011;-87
2022/03/29 07:45:19;;;;;;;18.55;9.60;;;8.10;99.90;;;;;;6272893;22;20089;-88
2022/03/29 07:47:52;;;;;;;22.33;10.98;;;8.40;99.90;;;;;;6276288;22;20026;-86
2022/03/29 07:50:43;;;;;;;25.03;11.47;;;8.40;99.90;;;;;;6278826;22;20346;-87
2022/03/29 07:53:13;;;;;;;29.58;13.15;;;8.40;99.90;;;;;;6273754;22;20257;-88
2022/03/29 07:55:43;;;;;;;20.00;10.38;;;8.40;99.90;;;;;;6276694;22;20393;-89
2022/03/29 07:58:19;;;;;;;28.65;13.55;;;8.30;99.90;;;;;;6274380;22;20028;-88
2022/03/29 08:00:50;;;;;;;29.42;12.23;;;8.20;99.90;;;;;;6273980;22;20420;-88
2022/03/29 08:03:20;;;;;;;25.98;13.05;;;8.20;99.90;;;;;;6275397;22;20011;-88
2022/03/29 08:05:49;;;;;;;30.00;13.27;;;8.10;99.90;;;;;;6274893;22;20019;-89
2022/03/29 08:08:20;;;;;;;22.30;11.30;;;8.20;99.90;;;;;;6276329;22;20054;-87
2022/03/29 08:10:52;;;;;;;32.25;12.60;;;8.40;99.90;;;;;;6274666;22;20020;-86
2022/03/29 08:13:20;;;;;;;24.42;11.88;;;8.60;99.90;;;;;;6276165;22;20472;-88
2022/03/29 08:15:53;;;;;;;23.73;10.93;;;8.40;99.90;;;;;;6276616;22;20020;-88
2022/03/29 08:18:22;;;;;;;22.93;11.30;;;8.50;99.90;;;;;;6275640;22;20031;-87
2022/03/29 08:20:52;;;;;;;24.90;12.18;;;8.60;99.90;;;;;;6276650;22;20283;-88
2022/03/29 08:23:22;;;;;;;24.40;12.20;;;8.50;99.90;;;;;;6276794;22;20016;-88
2022/03/29 08:25:51;;;;;;;22.80;11.02;;;8.60;99.90;;;;;;6275478;22;20098;-87
2022/03/29 08:28:19;;;;;;;25.48;12.43;;;8.60;99.90;;;;;;6276943;22;20103;-87
2022/03/29 08:30:50;;;;;;;24.98;11.43;;;8.50;99.90;;;;;;6276609;22;20019;-87
2022/03/29 08:33:20;;;;;;;27.55;13.55;;;8.50;99.90;;;;;;6275066;22;20019;-87
2022/03/29 08:35:49;;;;;;;33.35;12.85;;;8.60;99.90;;;;;;6276586;22;20016;-87
2022/03/29 08:38:18;;;;;;;24.60;12.07;;;8.60;99.90;;;;;;6251786;22;20155;-87
2022/03/29 08:40:55;;;;;;;28.58;12.65;;;8.60;99.90;;;;;;6280039;22;20043;-88
2022/03/29 08:43:29;;;;;;;26.48;12.80;;;8.60;99.90;;;;;;6276143;22;20023;-87
2022/03/29 08:46:01;;;;;;;21.77;11.70;;;8.70;99.90;;;;;;6275811;22;20008;-88
2022/03/29 08:48:39;;;;;;;28.00;12.48;;;8.70;99.90;;;;;;6276870;22;20091;-87
2022/03/29 08:51:10;;;;;;;24.00;13.75;;;8.80;99.90;;;;;;6276124;22;20030;-86
2022/03/29 08:53:58;;;;;;;20.77;10.02;;;8.70;99.90;;;;;;6276260;22;20015;-88
2022/03/29 08:56:29;;;;;;;31.35;12.55;;;8.80;99.90;;;;;;6275142;22;20378;-88
2022/03/29 08:58:59;;;;;;;25.73;12.13;;;8.90;99.90;;;;;;6275294;22;20087;-87
2022/03/29 09:01:35;;;;;;;29.35;15.30;;;8.90;99.90;;;;;;6276013;22;20016;-88
2022/03/29 09:04:06;;;;;;;23.55;12.18;;;9.00;99.90;;;;;;6250451;22;20015;-88
2022/03/29 09:06:54;;;;;;;30.17;11.57;;;9.10;99.90;;;;;;6274827;22;20012;-87
2022/03/29 09:09:44;;;;;;;34.70;14.15;;;9.00;99.90;;;;;;6274270;22;20023;-87
2022/03/29 09:12:22;;;;;;;22.95;13.05;;;9.00;99.90;;;;;;6276019;22;20083;-88
2022/03/29 09:14:54;;;;;;;24.08;13.35;;;9.00;99.90;;;;;;6299334;22;20066;-88
2022/03/29 09:17:40;;;;;;;24.33;11.98;;;9.10;99.90;;;;;;6275010;22;20085;-86
2022/03/29 09:20:31;;;;;;;27.75;11.93;;;9.30;99.90;;;;;;6274361;22;20008;-87
2022/03/29 09:23:13;;;;;;;21.92;11.45;;;9.30;99.90;;;;;;6274823;22;20324;-89
2022/03/29 09:25:54;;;;;;;25.85;13.38;;;9.50;99.90;;;;;;6274594;22;20023;-88
2022/03/29 09:28:42;;;;;;;21.90;10.57;;;9.30;99.90;;;;;;6274793;22;20450;-86
2022/03/29 09:31:36;;;;;;;28.80;12.07;;;9.40;99.90;;;;;;6276564;22;20024;-88
2022/03/29 09:34:29;;;;;;;23.13;12.20;;;9.20;99.90;;;;;;6276813;22;20037;-87
2022/03/29 09:37:02;;;;;;;25.52;11.88;;;9.10;99.90;;;;;;6275993;22;20027;-87
2022/03/29 09:39:39;;;;;;;22.20;11.20;;;9.10;99.90;;;;;;6276349;22;20099;-88
2022/03/29 09:42:30;;;;;;;29.80;10.52;;;9.20;99.90;;;;;;6274545;22;20413;-87
2022/03/29 09:45:12;;;;;;;30.55;11.25;;;9.40;99.90;;;;;;6274494;22;20339;-88
2022/03/29 09:47:56;;;;;;;26.33;10.95;;;9.40;99.90;;;;;;6273829;22;20331;-87
2022/03/29 09:50:30;;;;;;;25.15;12.32;;;9.40;99.90;;;;;;6249407;22;20023;-88
2022/03/29 09:53:28;;;;;;;27.67;12.77;;;9.30;99.90;;;;;;6273640;22;20026;-87
2022/03/29 09:56:11;;;;;;;28.45;12.18;;;9.40;99.90;;;;;;6274153;22;20023;-88
2022/03/29 09:59:21;;;;;;;22.13;11.57;;;9.50;99.90;;;;;;6279096;22;20027;-86
2022/03/29 10:02:03;;;;;;;29.50;12.10;;;9.50;99.90;;;;;;6260856;22;20015;-87
2022/03/29 10:04:39;;;;;;;33.78;13.48;;;9.30;99.90;;;;;;6275921;22;20513;-87
2022/03/29 10:07:11;;;;;;;25.58;12.35;;;9.40;99.90;;;;;;6276168;22;20042;-88
2022/03/29 10:09:44;;;;;;;29.05;10.95;;;9.50;99.90;;;;;;6275241;22;20347;-86
2022/03/29 10:12:19;;;;;;;27.55;12.75;;;9.60;99.90;;;;;;6275403;22;20019;-87
2022/03/29 10:14:54;;;;;;;31.98;12.68;;;9.80;99.90;;;;;;6273438;22;20024;-87
2022/03/29 10:17:28;;;;;;;26.70;11.13;;;9.80;99.90;;;;;;6275859;22;20016;-88
2022/03/29 10:20:07;;;;;;;22.27;10.68;;;10.00;99.90;;;;;;6250707;22;20023;-88
2022/03/29 10:22:40;;;;;;;32.92;13.82;;;10.20;99.90;;;;;;6274330;22;20015;-87
2022/03/29 10:25:22;;;;;;;27.35;11.07;;;9.90;99.90;;;;;;6250711;22;20012;-87
2022/03/29 10:28:10;;;;;;;28.98;13.02;;;10.00;99.90;;;;;;6251723;22;20115;-88
2022/03/29 10:30:47;;;;;;;31.88;13.10;;;9.90;99.90;;;;;;6273636;22;20023;-87
2022/03/29 10:33:30;;;;;;;23.17;13.02;;;10.00;99.90;;;;;;6274111;22;20466;-87
2022/03/29 10:36:15;;;;;;;27.48;13.73;;;9.70;99.90;;;;;;6274456;22;20023;-87
2022/03/29 10:38:58;;;;;;;25.20;13.23;;;9.60;99.90;;;;;;6273856;22;20015;-87
2022/03/29 10:41:58;;;;;;;25.10;13.15;;;9.70;99.90;;;;;;6276167;22;20015;-87
2022/03/29 10:45:00;;;;;;;27.77;13.07;;;9.70;99.90;;;;;;6273578;22;20046;-88
2022/03/29 10:48:13;;;;;;;25.08;12.23;;;10.00;99.90;;;;;;6274097;22;20020;-87
2022/03/29 10:50:50;;;;;;;31.02;12.15;;;10.10;99.90;;;;;;6273260;22;20083;-87
2022/03/29 10:53:35;;;;;;;30.45;12.95;;;10.30;99.90;;;;;;6274127;22;20515;-88
2022/03/29 10:56:30;;;;;;;32.17;12.93;;;10.30;99.90;;;;;;6298987;22;20074;-88
2022/03/29 10:59:09;;;;;;;23.70;11.95;;;10.60;99.90;;;;;;6273746;22;20020;-87
2022/03/29 11:02:09;;;;;;;23.92;12.43;;;10.70;99.90;;;;;;6249350;22;20016;-88
2022/03/29 11:05:06;;;;;;;21.17;10.70;;;10.50;99.90;;;;;;6273696;22;20012;-89
2022/03/29 11:08:13;;;;;;;25.70;12.63;;;10.90;99.90;;;;;;6275286;22;20011;-88
2022/03/29 11:10:48;;;;;;;26.23;12.38;;;10.70;99.90;;;;;;6271874;22;20387;-90
2022/03/29 11:13:37;;;;;;;28.10;12.38;;;10.80;99.90;;;;;;6274453;22;20474;-89
2022/03/29 11:16:35;;;;;;;23.48;12.07;;;10.70;99.90;;;;;;6272994;22;20031;-88
2022/03/29 11:19:47;;;;;;;29.35;13.15;;;10.90;99.90;;;;;;6272009;22;20011;-88
2022/03/29 11:22:36;;;;;;;24.88;12.13;;;10.80;99.90;;;;;;6273052;22;20015;-88
2022/03/29 11:25:28;;;;;;;25.63;12.50;;;10.80;99.90;;;;;;6272809;22;20016;-89
2022/03/29 11:28:47;;;;;;;25.00;11.90;;;10.70;99.90;;;;;;6273889;22;20355;-88
2022/03/29 11:32:01;;;;;;;31.00;13.30;;;11.00;99.90;;;;;;6272911;22;20031;-89
2022/03/29 11:34:56;;;;;;;29.02;13.02;;;10.90;99.90;;;;;;6252000;22;20019;-88
2022/03/29 11:38:01;;;;;;;25.08;11.10;;;10.90;99.90;;;;;;6252708;22;20026;-88
2022/03/29 11:41:03;;;;;;;24.73;10.63;;;11.40;99.90;;;;;;6255112;22;20020;-88
2022/03/29 11:44:31;;;;;;;30.27;11.85;;;11.20;99.90;;;;;;6278679;22;20023;-89
2022/03/29 11:48:24;;;;;;;26.63;11.52;;;11.50;99.90;;;;;;6275862;22;20088;-88
2022/03/29 11:55:20;;;;;;;;;;;;;;;;;;;;;
2022/03/29 11:58:59;;;;;;;23.33;10.43;;;11.90;99.90;;;;;;6052874;23;20034;-88
2022/03/29 12:06:59;;;;;;;25.38;13.02;;;12.20;99.90;;;;;;6243982;23;20016;-88
2022/03/29 12:17:14;;;;;;;27.45;11.77;;;11.50;99.90;;;;;;6122321;23;20045;-90
2022/03/29 12:20:49;;;;;;;31.80;13.00;;;11.60;99.90;;;;;;5986584;23;20113;-90
2022/03/29 12:24:54;;;;;;;28.45;11.07;;;11.90;99.90;;;;;;5983791;23;20028;-89
2022/03/29 12:28:36;;;;;;;;;;;;;;;;;;;;;
2022/03/29 12:32:30;;;;;;;22.95;10.48;;;12.60;99.90;;;;;;5982857;23;20023;-90
2022/03/29 12:36:16;;;;;;;;;;;;;;;;;;;;;
2022/03/29 12:39:45;;;;;;;23.73;12.13;;;12.30;99.90;;;;;;5943835;24;20100;-90
2022/03/29 12:57:09;;;;;;;27.45;9.43;;;12.50;99.90;;;;;;6006159;23;20094;-90
2022/03/29 14:10:14;;;;;;;17.02;6.53;;;12.20;99.90;;;;;;6203500;23;20036;-89
2022/03/29 15:57:53;;;;;;;15.93;6.10;;;12.30;25.80;;;;;;6243307;22;20024;-90
2022/03/29 16:18:55;;;;;;;;;;;;;;;;;;;;;
2022/03/29 16:31:37;;;;;;;;;;;;;;;;;;;;;
2022/03/29 16:59:46;;;;;;;26.58;7.85;;;12.10;98.10;;;;;;6088231;23;20496;-89
2022/03/29 17:07:12;;;;;;;18.40;6.72;;;11.70;60.80;;;;;;6245566;23;20035;-89
2022/03/29 17:09:52;;;;;;;18.70;7.43;;;12.50;99.90;;;;;;6195307;23;20024;-89
2022/03/29 17:13:09;;;;;;;13.05;6.47;;;11.40;50.80;;;;;;6218776;23;20044;-90
2022/03/29 17:16:54;;;;;;;;;;;;;;;;;;;;;
2022/03/29 17:20:32;;;;;;;14.68;6.72;;;11.60;99.90;;;;;;6244405;23;20023;-88
2022/03/29 17:24:48;;;;;;;;;;;;;;;;;;;;;
2022/03/29 17:27:35;;;;;;;14.38;7.28;;;11.60;99.90;;;;;;6227519;23;20020;-90
2022/03/29 17:30:11;;;;;;;12.32;6.53;;;11.50;96.80;;;;;;6213896;23;21377;-89
2022/03/29 17:32:52;;;;;;;21.48;8.35;;;12.10;99.90;;;;;;6218445;23;20054;-89
2022/03/29 17:36:04;;;;;;;19.20;7.25;;;11.70;92.50;;;;;;6194023;23;20020;-88
2022/03/29 17:39:26;;;;;;;15.35;7.35;;;11.40;99.90;;;;;;6187591;23;20120;-89
2022/03/29 17:41:59;;;;;;;11.95;6.50;;;11.80;99.90;;;;;;6194566;23;20016;-89
2022/03/29 17:45:09;;;;;;;20.05;7.63;;;11.60;99.90;;;;;;6195443;23;20012;-88
2022/03/29 17:52:36;;;;;;;16.58;6.93;;;11.00;99.90;;;;;;6212327;23;20439;-88
2022/03/29 17:55:55;;;;;;;25.40;7.97;;;10.90;99.90;;;;;;6243878;23;20090;-88
2022/03/29 17:58:43;;;;;;;24.38;6.68;;;10.70;99.90;;;;;;6191610;23;20391;-89
2022/03/29 18:01:47;;;;;;;15.43;6.70;;;11.00;99.90;;;;;;6207754;23;20023;-88
2022/03/29 18:05:15;;;;;;;12.20;6.88;;;11.30;99.90;;;;;;6238416;23;20462;-89
2022/03/29 18:08:27;;;;;;;12.65;6.78;;;10.90;99.90;;;;;;6223711;23;20098;-89
2022/03/29 18:11:30;;;;;;;18.23;6.22;;;10.70;99.90;;;;;;6175715;23;20054;-89
2022/03/29 18:14:39;;;;;;;13.30;6.45;;;10.60;99.90;;;;;;6199147;23;20493;-88
2022/03/29 18:17:55;;;;;;;22.58;7.07;;;11.00;99.90;;;;;;6244422;23;20091;-89
2022/03/29 18:21:05;;;;;;;13.63;6.88;;;10.80;99.90;;;;;;6217092;23;20729;-89